createdAt,value
2023-10-26T00:00:12.577Z,5.10
2023-10-26T00:02:39.711Z,5.97
2023-10-26T00:05:07.057Z,5.35
2023-10-26T00:07:34.373Z,6.53
2023-10-26T00:10:01.336Z,6.30
2023-10-26T00:12:28.426Z,6.65
2023-10-26T00:14:55.465Z,5.47
2023-10-26T00:17:23.486Z,6.32
2023-10-26T00:19:50.480Z,5.78
2023-10-26T00:22:18.098Z,5.18
2023-10-26T00:24:45.284Z,5.85
2023-10-26T00:27:12.490Z,5.88
2023-10-26T00:29:39.486Z,4.90
2023-10-26T00:32:07.392Z,5.47
2023-10-26T00:34:34.935Z,4.20
2023-10-26T00:37:02.075Z,4.90
2023-10-26T00:39:29.618Z,6.20
2023-10-26T00:41:57.027Z,5.05
2023-10-26T00:44:24.559Z,6.35
2023-10-26T00:46:53.797Z,7.07
2023-10-26T00:49:22.396Z,5.85
2023-10-26T00:52:02.347Z,5.03
2023-10-26T00:54:30.100Z,5.05
2023-10-26T00:56:58.461Z,4.70
2023-10-26T00:59:28.908Z,4.72
2023-10-26T01:01:57.234Z,5.10
2023-10-26T01:04:24.379Z,3.97
2023-10-26T01:06:51.529Z,4.20
2023-10-26T01:09:18.769Z,4.47
2023-10-26T01:11:45.896Z,6.38
2023-10-26T01:14:13.270Z,4.43
2023-10-26T01:16:40.718Z,3.58
2023-10-26T01:19:10.051Z,8.68
2023-10-26T01:21:53.831Z,3.70
2023-10-26T01:24:21.674Z,4.22
2023-10-26T01:26:48.782Z,3.75
2023-10-26T01:29:15.904Z,3.53
2023-10-26T01:31:42.866Z,4.68
2023-10-26T01:34:10.904Z,4.78
2023-10-26T01:36:37.901Z,4.35
2023-10-26T01:39:05.552Z,4.72
2023-10-26T01:41:35.726Z,3.58
2023-10-26T01:44:03.382Z,4.15
2023-10-26T01:46:30.508Z,3.38
2023-10-26T01:48:57.684Z,4.75
2023-10-26T01:51:24.837Z,5.07
2023-10-26T01:53:51.943Z,6.43
2023-10-26T01:56:19.053Z,3.28
2023-10-26T01:58:46.431Z,3.28
2023-10-26T02:01:14.340Z,4.57
2023-10-26T02:03:41.395Z,2.92
2023-10-26T02:06:10.698Z,3.20
2023-10-26T02:08:37.936Z,2.83
2023-10-26T02:11:05.419Z,2.83
2023-10-26T02:13:32.540Z,2.80
2023-10-26T02:16:02.812Z,4.72
2023-10-26T02:18:30.878Z,3.85
2023-10-26T02:20:58.089Z,3.45
2023-10-26T02:23:25.301Z,3.25
2023-10-26T02:25:52.348Z,3.10
2023-10-26T02:28:20.760Z,2.92
2023-10-26T02:30:48.014Z,2.92
2023-10-26T02:33:15.155Z,2.38
2023-10-26T02:35:42.333Z,3.40
2023-10-26T02:38:09.305Z,3.05
2023-10-26T02:40:38.092Z,3.03
2023-10-26T02:43:05.388Z,3.17
2023-10-26T02:45:32.726Z,2.63
2023-10-26T02:48:00.445Z,4.25
2023-10-26T02:50:28.730Z,2.55
2023-10-26T02:52:55.892Z,3.35
2023-10-26T02:55:22.894Z,2.50
2023-10-26T02:57:49.979Z,2.63
2023-10-26T03:00:17.772Z,3.10
2023-10-26T03:02:45.160Z,2.10
2023-10-26T03:05:12.340Z,2.30
2023-10-26T03:07:39.482Z,2.47
2023-10-26T03:10:06.836Z,2.22
2023-10-26T03:12:33.873Z,1.83
2023-10-26T03:15:01.404Z,2.17
2023-10-26T03:17:28.705Z,2.20
2023-10-26T03:19:55.706Z,4.13
2023-10-26T03:22:22.748Z,2.85
2023-10-26T03:24:51.574Z,4.72
2023-10-26T03:27:18.873Z,4.00
2023-10-26T03:29:45.981Z,3.70
2023-10-26T03:32:12.953Z,5.65
2023-10-26T03:34:39.907Z,2.22
2023-10-26T03:37:06.908Z,2.88
2023-10-26T03:39:35.568Z,2.72
2023-10-26T03:42:02.747Z,3.22
2023-10-26T03:44:29.747Z,2.42
2023-10-26T03:46:56.760Z,5.15
2023-10-26T03:49:23.818Z,2.40
2023-10-26T03:51:51.139Z,2.03
2023-10-26T03:54:18.184Z,1.83
2023-10-26T03:56:45.175Z,2.05
2023-10-26T03:59:12.136Z,3.00
2023-10-26T04:01:39.205Z,2.88
2023-10-26T04:04:06.556Z,1.92
2023-10-26T04:06:33.612Z,2.30
2023-10-26T04:09:00.699Z,2.33
2023-10-26T04:11:27.758Z,2.25
2023-10-26T04:13:56.303Z,2.75
2023-10-26T04:16:23.720Z,4.15
2023-10-26T04:18:50.862Z,3.20
2023-10-26T04:21:17.936Z,2.47
2023-10-26T04:23:44.943Z,2.80
2023-10-26T04:26:14.010Z,4.60
2023-10-26T04:28:51.346Z,3.05
2023-10-26T04:31:19.436Z,2.80
2023-10-26T04:33:46.572Z,4.75
2023-10-26T04:36:13.658Z,3.10
2023-10-26T04:38:40.700Z,6.35
2023-10-26T04:41:07.622Z,4.05
2023-10-26T04:43:34.590Z,3.15
2023-10-26T04:46:02.161Z,4.20
2023-10-26T04:48:29.613Z,3.13
2023-10-26T04:50:57.053Z,3.70
2023-10-26T04:53:24.164Z,3.47
2023-10-26T04:55:51.120Z,12.23
2023-10-26T04:58:18.173Z,3.60
2023-10-26T05:00:45.216Z,3.67
2023-10-26T05:03:12.323Z,5.32
2023-10-26T05:05:39.362Z,2.83
2023-10-26T05:08:06.309Z,3.92
2023-10-26T05:10:33.384Z,3.63
2023-10-26T05:13:00.430Z,3.00
2023-10-26T05:15:27.553Z,2.88
2023-10-26T05:17:54.623Z,8.27
2023-10-26T05:20:22.648Z,5.20
2023-10-26T05:22:49.757Z,3.00
2023-10-26T05:25:16.743Z,2.83
2023-10-26T05:27:44.668Z,3.35
2023-10-26T05:30:11.902Z,3.13
2023-10-26T05:32:40.161Z,2.22
2023-10-26T05:35:07.528Z,2.75
2023-10-26T05:37:34.504Z,2.58
2023-10-26T05:40:01.446Z,5.40
2023-10-26T05:42:28.409Z,2.78
2023-10-26T05:44:57.136Z,5.43
2023-10-26T05:47:24.829Z,3.10
2023-10-26T05:49:51.863Z,2.55
2023-10-26T05:52:18.911Z,2.17
2023-10-26T05:54:46.196Z,2.30
2023-10-26T05:57:13.896Z,5.28
2023-10-26T05:59:41.190Z,4.57
2023-10-26T06:02:08.191Z,2.28
2023-10-26T06:04:36.746Z,2.85
2023-10-26T06:07:04.334Z,4.70
2023-10-26T06:09:32.110Z,3.42
2023-10-26T06:11:59.216Z,6.28
2023-10-26T06:14:26.357Z,4.85
2023-10-26T06:16:53.370Z,6.30
2023-10-26T06:19:20.399Z,2.58
2023-10-26T06:21:47.358Z,3.78
2023-10-26T06:24:14.356Z,8.90
2023-10-26T06:26:41.622Z,5.75
2023-10-26T06:29:08.740Z,3.38
2023-10-26T06:31:35.806Z,4.20
2023-10-26T06:34:02.779Z,6.65
2023-10-26T06:36:29.896Z,5.70
2023-10-26T06:38:58.078Z,4.40
2023-10-26T06:41:25.175Z,4.63
2023-10-26T06:43:54.080Z,6.15
2023-10-26T06:46:21.127Z,5.72
2023-10-26T06:48:48.204Z,4.80
2023-10-26T06:51:15.429Z,7.28
2023-10-26T06:53:42.516Z,7.40
2023-10-26T06:56:14.921Z,4.75
2023-10-26T06:58:43.766Z,17.65
2023-10-26T07:01:19.833Z,6.45
2023-10-26T07:03:49.717Z,9.98
2023-10-26T07:06:16.959Z,7.15
2023-10-26T07:08:44.576Z,11.00
2023-10-26T07:11:11.538Z,10.43
2023-10-26T07:13:38.780Z,11.23
2023-10-26T07:16:06.383Z,11.88
2023-10-26T07:18:34.518Z,11.52
2023-10-26T07:21:07.103Z,12.27
2023-10-26T07:23:35.233Z,15.48
2023-10-26T07:26:03.524Z,15.32
2023-10-26T07:28:30.597Z,18.63
2023-10-26T07:30:57.625Z,15.98
2023-10-26T07:33:24.903Z,15.15
2023-10-26T07:35:57.665Z,19.00
2023-10-26T07:38:35.713Z,18.20
2023-10-26T07:41:07.245Z,20.27
2023-10-26T07:43:35.444Z,13.32
2023-10-26T07:46:02.866Z,16.65
2023-10-26T07:48:30.196Z,15.20
2023-10-26T07:50:57.779Z,16.02
2023-10-26T07:53:25.290Z,17.38
2023-10-26T07:55:52.341Z,12.07
2023-10-26T07:58:19.412Z,13.25
2023-10-26T08:00:46.655Z,15.35
2023-10-26T08:03:13.701Z,17.00
2023-10-26T08:05:40.673Z,9.82
2023-10-26T08:08:13.502Z,10.20
2023-10-26T08:10:40.498Z,16.88
2023-10-26T08:13:07.887Z,12.68
2023-10-26T08:16:10.015Z,11.18
2023-10-26T08:18:22.508Z,8.27
2023-10-26T08:20:52.951Z,8.38
2023-10-26T08:23:21.024Z,8.82
2023-10-26T08:25:49.543Z,9.98
2023-10-26T08:28:16.807Z,7.20
2023-10-26T08:30:43.972Z,5.85
2023-10-26T08:33:11.220Z,6.82
2023-10-26T08:35:40.380Z,8.23
2023-10-26T08:38:07.610Z,5.53
2023-10-26T08:40:34.728Z,8.93
2023-10-26T08:43:06.489Z,6.18
2023-10-26T08:45:37.064Z,11.73
2023-10-26T08:48:05.450Z,4.38
2023-10-26T08:50:34.256Z,7.68
2023-10-26T08:53:01.500Z,6.63
2023-10-26T08:55:28.547Z,6.45
2023-10-26T08:57:56.003Z,6.40
2023-10-26T09:00:24.398Z,7.80
2023-10-26T09:02:52.117Z,5.13
2023-10-26T09:05:19.621Z,6.03
2023-10-26T09:07:46.798Z,6.68
2023-10-26T09:10:14.032Z,9.82
2023-10-26T09:12:41.062Z,5.30
2023-10-26T09:15:08.418Z,4.60
2023-10-26T09:17:36.287Z,5.70
2023-10-26T09:20:22.686Z,6.55
2023-10-26T09:22:49.822Z,5.13
2023-10-26T09:25:17.134Z,6.97
2023-10-26T09:27:45.802Z,6.50
2023-10-26T09:30:34.030Z,4.40
2023-10-26T09:33:03.110Z,5.53
2023-10-26T09:35:34.715Z,7.57
2023-10-26T09:38:02.020Z,4.63
2023-10-26T09:40:29.594Z,5.07
2023-10-26T09:42:59.640Z,5.47
2023-10-26T09:45:27.226Z,9.45
2023-10-26T09:47:54.537Z,4.82
2023-10-26T09:50:22.465Z,7.22
2023-10-26T09:52:49.890Z,4.70
2023-10-26T09:55:18.154Z,8.05
2023-10-26T09:58:06.294Z,4.70
2023-10-26T10:00:36.083Z,5.88
2023-10-26T10:03:14.702Z,6.43
2023-10-26T10:05:45.248Z,6.82
2023-10-26T10:08:12.815Z,3.28
2023-10-26T10:11:18.727Z,6.28
2023-10-26T10:13:47.421Z,3.53
2023-10-26T10:16:36.543Z,5.80
2023-10-26T10:19:24.792Z,3.63
2023-10-26T10:21:53.312Z,3.33
2023-10-26T10:24:39.050Z,3.70
2023-10-26T10:27:19.523Z,3.70
2023-10-26T10:29:46.715Z,5.07
2023-10-26T10:32:33.667Z,7.10
2023-10-26T10:35:06.572Z,3.50
2023-10-26T10:37:33.589Z,3.97
2023-10-26T10:40:17.689Z,3.72
2023-10-26T10:42:49.601Z,3.92
2023-10-26T10:45:18.421Z,5.50
2023-10-26T10:47:48.421Z,5.35
2023-10-26T10:50:22.424Z,3.35
2023-10-26T10:52:51.537Z,5.90
2023-10-26T10:55:20.980Z,3.45
2023-10-26T10:58:01.207Z,3.88
2023-10-26T11:00:50.030Z,2.83
2023-10-26T11:03:23.950Z,4.68
2023-10-26T11:05:52.211Z,6.60
2023-10-26T11:08:21.034Z,3.05
2023-10-26T11:10:51.191Z,3.75
2023-10-26T11:13:25.048Z,5.53
2023-10-26T11:15:52.061Z,3.05
2023-10-26T11:18:19.163Z,4.75
2023-10-26T11:20:49.716Z,4.95
2023-10-26T11:23:20.423Z,2.92
2023-10-26T11:25:47.417Z,2.53
2023-10-26T11:28:14.567Z,3.53
2023-10-26T11:30:53.090Z,2.88
2023-10-26T11:33:32.701Z,5.43
2023-10-26T11:35:59.794Z,5.13
2023-10-26T11:38:29.785Z,5.78
2023-10-26T11:40:56.818Z,5.88
2023-10-26T11:43:35.771Z,5.32
2023-10-26T11:46:06.028Z,6.75
2023-10-26T11:48:34.566Z,9.90
2023-10-26T11:51:04.079Z,9.80
2023-10-26T11:53:31.170Z,18.27
2023-10-26T11:55:59.619Z,10.05
2023-10-26T11:58:26.585Z,12.48
2023-10-26T12:00:53.626Z,21.30
2023-10-26T12:03:20.741Z,11.93
2023-10-26T12:05:47.737Z,18.42
2023-10-26T12:08:14.855Z,18.00
2023-10-26T12:10:42.526Z,19.05
2023-10-26T12:13:10.594Z,20.65
2023-10-26T12:15:38.085Z,16.85
2023-10-26T12:18:07.930Z,18.13
2023-10-26T12:20:34.897Z,19.95
2023-10-26T12:23:01.851Z,29.90
2023-10-26T12:25:28.824Z,22.80
2023-10-26T12:28:19.656Z,16.10
2023-10-26T12:30:42.902Z,13.07
2023-10-26T12:33:11.017Z,15.80
2023-10-26T12:35:38.135Z,12.70
2023-10-26T12:38:05.074Z,19.02
2023-10-26T12:40:32.127Z,23.25
2023-10-26T12:42:59.217Z,13.25
2023-10-26T12:45:26.432Z,14.20
2023-10-26T12:47:53.916Z,20.83
2023-10-26T12:50:21.600Z,21.60
2023-10-26T12:52:48.874Z,17.65
2023-10-26T12:55:15.852Z,15.45
2023-10-26T12:57:42.870Z,14.75
2023-10-26T13:00:10.840Z,17.23
2023-10-26T13:02:38.870Z,20.83
2023-10-26T13:05:06.156Z,18.70
2023-10-26T13:07:33.216Z,12.35
2023-10-26T13:10:00.341Z,11.50
2023-10-26T13:12:27.410Z,18.83
2023-10-26T13:14:56.962Z,10.75
2023-10-26T13:17:31.847Z,10.93
2023-10-26T13:19:58.864Z,13.38
2023-10-26T13:22:26.938Z,12.70
2023-10-26T13:24:53.950Z,13.60
2023-10-26T13:27:21.039Z,12.55
2023-10-26T13:29:48.473Z,12.20
2023-10-26T13:32:15.468Z,12.57
2023-10-26T13:34:42.665Z,10.80
2023-10-26T13:37:09.890Z,12.50
2023-10-26T13:39:36.988Z,12.40
2023-10-26T13:42:04.195Z,13.15
2023-10-26T13:44:31.790Z,9.20
2023-10-26T13:47:00.104Z,10.70
2023-10-26T13:49:27.587Z,13.73
2023-10-26T13:51:54.622Z,13.07
2023-10-26T13:54:22.543Z,15.25
2023-10-26T13:56:49.516Z,10.43
2023-10-26T13:59:16.584Z,14.38
2023-10-26T14:01:44.983Z,13.57
2023-10-26T14:04:12.156Z,15.45
2023-10-26T14:06:39.199Z,12.05
2023-10-26T14:09:06.224Z,9.43
2023-10-26T14:11:34.154Z,9.27
2023-10-26T14:14:02.446Z,9.32
2023-10-26T14:16:31.877Z,12.45
2023-10-26T14:19:01.902Z,10.68
2023-10-26T14:21:28.930Z,9.50
2023-10-26T14:23:55.879Z,12.80
2023-10-26T14:26:22.849Z,12.73
2023-10-26T14:28:49.906Z,14.25
2023-10-26T14:31:17.817Z,12.23
2023-10-26T14:33:44.939Z,8.90
2023-10-26T14:36:11.975Z,10.77
2023-10-26T14:38:38.945Z,11.93
2023-10-26T14:41:05.970Z,10.20
2023-10-26T14:43:32.967Z,11.65
2023-10-26T14:45:59.949Z,7.80
2023-10-26T14:48:26.947Z,9.00
2023-10-26T14:51:00.991Z,8.02
2023-10-26T14:53:28.119Z,8.10
2023-10-26T14:55:55.148Z,7.68
2023-10-26T14:58:23.193Z,8.50
2023-10-26T15:00:51.659Z,8.68
2023-10-26T15:03:19.307Z,8.27
2023-10-26T15:05:47.657Z,6.82
2023-10-26T15:08:14.707Z,10.63
2023-10-26T15:10:48.971Z,7.18
2023-10-26T15:13:16.551Z,10.95
2023-10-26T15:15:43.960Z,11.43
2023-10-26T15:18:11.135Z,6.68
2023-10-26T15:20:38.332Z,11.70
2023-10-26T15:23:05.362Z,7.03
2023-10-26T15:25:36.486Z,5.75
2023-10-26T15:28:04.942Z,10.95
2023-10-26T15:30:32.177Z,10.32
2023-10-26T15:32:59.385Z,13.43
2023-10-26T15:35:29.793Z,6.65
2023-10-26T15:37:56.895Z,7.90
2023-10-26T15:40:24.210Z,9.70
2023-10-26T15:42:51.245Z,6.28
2023-10-26T15:45:19.563Z,5.68
2023-10-26T15:47:46.545Z,7.32
2023-10-26T15:50:13.906Z,6.50
2023-10-26T15:52:40.866Z,5.63
2023-10-26T15:55:10.129Z,4.53
2023-10-26T15:57:38.397Z,6.18
2023-10-26T16:00:10.700Z,8.05
2023-10-26T16:02:37.812Z,4.78
2023-10-26T16:05:06.466Z,4.35
2023-10-26T16:07:34.136Z,6.30
2023-10-26T16:10:01.093Z,6.45
2023-10-26T16:12:28.532Z,4.13
2023-10-26T16:14:55.876Z,4.03
2023-10-26T16:17:22.912Z,4.88
2023-10-26T16:19:49.873Z,4.80
2023-10-26T16:22:18.265Z,12.27
2023-10-26T16:24:45.541Z,4.55
2023-10-26T16:27:12.818Z,7.93
2023-10-26T16:29:40.564Z,11.82
2023-10-26T16:32:07.623Z,17.63
2023-10-26T16:34:34.556Z,11.90
2023-10-26T16:37:01.643Z,35.72
2023-10-26T16:39:28.654Z,27.95
2023-10-26T16:41:56.077Z,14.60
2023-10-26T16:44:23.753Z,31.00
2023-10-26T16:46:50.830Z,12.10
2023-10-26T16:49:17.819Z,14.07
2023-10-26T16:51:44.811Z,17.95
2023-10-26T16:54:11.910Z,8.88
2023-10-26T16:56:38.872Z,17.48
2023-10-26T16:59:06.046Z,9.75
2023-10-26T17:01:33.016Z,4.70
2023-10-26T17:04:00.085Z,5.72
2023-10-26T17:06:27.189Z,10.85
2023-10-26T17:08:54.175Z,6.82
2023-10-26T17:11:21.196Z,6.05
2023-10-26T17:13:48.169Z,9.40
2023-10-26T17:16:15.261Z,8.63
2023-10-26T17:18:42.368Z,8.30
2023-10-26T17:21:09.655Z,2.97
2023-10-26T17:23:36.641Z,7.35
2023-10-26T17:26:03.787Z,3.83
2023-10-26T17:28:30.741Z,3.67
2023-10-26T17:31:06.286Z,7.75
2023-10-26T17:36:00.147Z,7.68
2023-10-26T17:38:27.340Z,7.57
2023-10-26T17:40:58.315Z,6.97
2023-10-26T17:43:25.395Z,3.97
2023-10-26T17:45:55.983Z,2.72
2023-10-26T17:48:23.077Z,3.08
2023-10-26T17:50:50.117Z,3.67
2023-10-26T17:53:17.245Z,2.60
2023-10-26T17:55:44.735Z,2.35
2023-10-26T17:58:12.436Z,2.75
2023-10-26T18:00:39.455Z,2.53
2023-10-26T18:03:06.443Z,7.07
2023-10-26T18:05:33.408Z,2.47
2023-10-26T18:08:00.337Z,6.95
2023-10-26T18:10:27.304Z,5.65
2023-10-26T18:12:54.390Z,5.05
2023-10-26T18:15:21.394Z,14.00
2023-10-26T18:17:48.678Z,2.65
2023-10-26T18:20:15.667Z,3.60
2023-10-26T18:22:42.654Z,3.70
2023-10-26T18:25:11.495Z,2.38
2023-10-26T18:27:38.648Z,3.83
2023-10-26T18:30:06.876Z,1.38
2023-10-26T18:32:34.026Z,5.40
2023-10-26T18:35:01.116Z,2.67
2023-10-26T18:37:28.438Z,5.05
2023-10-26T18:39:58.024Z,1.67
2023-10-26T18:42:25.323Z,2.60
2023-10-26T18:44:52.820Z,2.30
2023-10-26T18:47:19.832Z,3.90
2023-10-26T18:49:46.893Z,3.33
2023-10-26T18:52:14.002Z,11.88
2023-10-26T18:54:41.054Z,2.80
2023-10-26T18:57:08.114Z,3.33
2023-10-26T18:59:35.146Z,2.92
2023-10-26T19:02:04.164Z,5.68
2023-10-26T19:04:33.193Z,3.85
2023-10-26T19:07:02.152Z,4.03
2023-10-26T19:09:30.471Z,4.35
2023-10-26T19:11:57.436Z,3.97
2023-10-26T19:14:24.386Z,2.20
2023-10-26T19:16:51.389Z,3.30
2023-10-26T19:19:18.428Z,5.15
2023-10-26T19:21:45.452Z,4.57
2023-10-26T19:24:12.929Z,3.35
2023-10-26T19:26:39.897Z,7.20
2023-10-26T19:29:06.892Z,2.95
2023-10-26T19:31:33.968Z,4.47
2023-10-26T19:34:01.121Z,2.83
2023-10-26T19:36:28.111Z,5.05
2023-10-26T19:38:55.100Z,1.20
2023-10-26T19:41:22.060Z,1.45
2023-10-26T19:43:49.080Z,1.60
2023-10-26T19:46:16.197Z,3.53
2023-10-26T19:48:44.074Z,5.97
2023-10-26T19:51:11.610Z,2.65
2023-10-26T19:53:38.727Z,2.88
2023-10-26T19:56:06.989Z,1.75
2023-10-26T19:58:35.113Z,3.85
2023-10-26T20:01:05.130Z,2.60
2023-10-26T20:03:32.958Z,1.95
2023-10-26T20:06:01.860Z,6.40
2023-10-26T20:08:30.384Z,2.90
2023-10-26T20:10:57.423Z,7.55
2023-10-26T20:13:24.551Z,4.35
2023-10-26T20:15:53.019Z,3.65
2023-10-26T20:18:20.072Z,6.50
2023-10-26T20:20:47.058Z,4.30
2023-10-26T20:23:14.007Z,5.22
2023-10-26T20:25:41.996Z,8.13
2023-10-26T20:28:10.985Z,11.13
2023-10-26T20:30:38.533Z,4.47
2023-10-26T20:33:05.595Z,8.95
2023-10-26T20:35:32.648Z,13.05
2023-10-26T20:37:59.608Z,8.55
2023-10-26T20:40:26.599Z,3.83
2023-10-26T20:42:53.587Z,8.65
2023-10-26T20:45:21.026Z,3.95
2023-10-26T20:47:48.074Z,4.82
2023-10-26T20:50:15.176Z,9.52
2023-10-26T20:52:42.135Z,4.97
2023-10-26T20:55:09.574Z,5.10
2023-10-26T20:57:36.587Z,13.57
2023-10-26T21:00:06.305Z,16.55
2023-10-26T21:02:37.227Z,8.52
2023-10-26T21:05:04.587Z,7.30
2023-10-26T21:07:31.565Z,8.15
2023-10-26T21:09:58.657Z,4.15
2023-10-26T21:12:25.754Z,4.10
2023-10-26T21:14:55.705Z,6.15
2023-10-26T21:17:23.042Z,5.40
2023-10-26T21:19:51.391Z,4.03
2023-10-26T21:22:18.922Z,5.40
2023-10-26T21:24:49.401Z,6.70
2023-10-26T21:27:16.475Z,4.63
2023-10-26T21:29:45.384Z,8.52
2023-10-26T21:32:12.488Z,12.75
2023-10-26T21:34:39.383Z,3.85
2023-10-26T21:37:06.458Z,2.45
2023-10-26T21:39:33.463Z,5.47
2023-10-26T21:42:01.799Z,3.42
2023-10-26T21:44:28.732Z,11.45
2023-10-26T21:46:55.809Z,4.43
2023-10-26T21:49:22.921Z,4.35
2023-10-26T21:51:49.957Z,2.40
2023-10-26T21:54:16.951Z,1.73
2023-10-26T21:56:44.024Z,5.63
2023-10-26T21:59:11.001Z,3.10
2023-10-26T22:01:38.059Z,1.08
2023-10-26T22:04:21.412Z,4.07
2023-10-26T22:06:49.410Z,3.10
2023-10-26T22:09:18.213Z,2.67
2023-10-26T22:11:45.443Z,2.63
2023-10-26T22:14:12.476Z,2.08
2023-10-26T22:16:41.065Z,3.35
2023-10-26T22:19:08.398Z,5.15
2023-10-26T22:21:35.446Z,4.95
2023-10-26T22:24:02.891Z,3.03
2023-10-26T22:26:29.885Z,3.53
2023-10-26T22:28:56.847Z,1.50
2023-10-26T22:31:25.398Z,1.52
2023-10-26T22:33:52.423Z,4.03
2023-10-26T22:36:19.426Z,8.23
2023-10-26T22:38:46.388Z,3.05
2023-10-26T22:41:13.353Z,3.03
2023-10-26T22:43:40.341Z,1.98
2023-10-26T22:46:07.783Z,3.03
2023-10-26T22:48:34.900Z,1.70
2023-10-26T22:51:02.020Z,2.30
2023-10-26T22:53:29.056Z,4.80
2023-10-26T22:55:55.956Z,2.85
2023-10-26T22:58:23.102Z,1.65
2023-10-26T23:00:50.075Z,3.35
2023-10-26T23:03:17.250Z,3.05
2023-10-26T23:05:44.353Z,1.63
2023-10-26T23:08:12.444Z,1.30
2023-10-26T23:10:39.420Z,2.65
2023-10-26T23:13:06.726Z,1.10
2023-10-26T23:15:33.809Z,1.15
2023-10-26T23:18:00.821Z,0.98
2023-10-26T23:20:27.867Z,2.05
2023-10-26T23:22:54.855Z,0.75
2023-10-26T23:25:21.964Z,1.45
2023-10-26T23:27:50.531Z,3.63
2023-10-26T23:30:17.605Z,0.85
2023-10-26T23:32:44.613Z,2.63
2023-10-26T23:35:11.548Z,1.20
2023-10-26T23:37:38.516Z,1.52
2023-10-26T23:40:06.173Z,1.02
2023-10-26T23:42:33.247Z,1.05
2023-10-26T23:45:00.216Z,0.70
2023-10-26T23:47:27.339Z,0.70
2023-10-26T23:49:55.602Z,1.52
2023-10-26T23:52:22.679Z,1.25
2023-10-26T23:54:49.938Z,0.80
2023-10-26T23:57:17.352Z,2.60
2023-10-26T23:59:44.596Z,2.47
